Time;durP1;ratioP1;P1;durP2;ratioP2;P2;SDS_P1;SDS_P2;PMS_P1;PMS_P2;Temp;Humidity;BMP_temperature;BMP_pressure;BME280_temperature;BME280_humidity;BME280_pressure;Samples;Min_cycle;Max_cycle;Signal;HPM_P1;HPM_P2
2023/01/18 00:00:45;;;;;;;0.20;0.20;;;;;;;;;;1744092;28;20265;-74
2023/01/18 00:01:36;;;;;;;0.20;0.20;;;;;;;;;;1738944;28;20203;-74
2023/01/18 00:02:28;;;;;;;0.10;0.10;;;;;;;;;;1742493;28;20598;-74
2023/01/18 00:03:19;;;;;;;0.20;0.20;;;;;;;;;;1740143;28;20264;-73
2023/01/18 00:04:11;;;;;;;0.00;0.00;;;;;;;;;;1740358;28;20207;-74
2023/01/18 00:05:03;;;;;;;0.10;0.10;;;;;;;;;;1739479;28;20581;-74
2023/01/18 00:05:55;;;;;;;0.15;0.15;;;;;;;;;;1730685;28;20255;-73
2023/01/18 00:06:46;;;;;;;0.10;0.10;;;;;;;;;;1739222;28;20627;-72
2023/01/18 00:07:38;;;;;;;0.10;0.10;;;;;;;;;;1742945;28;20225;-72
2023/01/18 00:08:30;;;;;;;0.20;0.20;;;;;;;;;;1740163;28;20624;-72
2023/01/18 00:09:22;;;;;;;0.20;0.20;;;;;;;;;;1739943;28;20219;-73
2023/01/18 00:10:13;;;;;;;0.10;0.10;;;;;;;;;;1739108;28;20198;-72
2023/01/18 00:11:06;;;;;;;0.15;0.15;;;;;;;;;;1738116;28;20223;-72
2023/01/18 00:11:57;;;;;;;0.10;0.10;;;;;;;;;;1739315;28;20271;-73
2023/01/18 00:12:50;;;;;;;0.20;0.20;;;;;;;;;;1742358;28;20646;-72
2023/01/18 00:13:41;;;;;;;0.10;0.10;;;;;;;;;;1740138;28;20206;-73
2023/01/18 00:14:33;;;;;;;0.15;0.15;;;;;;;;;;1739659;28;20206;-73
2023/01/18 00:15:24;;;;;;;0.20;0.20;;;;;;;;;;1740268;28;20608;-73
2023/01/18 00:16:18;;;;;;;0.10;0.10;;;;;;;;;;1742201;28;20191;-73
2023/01/18 00:17:09;;;;;;;0.10;0.10;;;;;;;;;;1739941;28;20288;-73
2023/01/18 00:18:02;;;;;;;0.28;0.28;;;;;;;;;;1741827;28;20206;-73
2023/01/18 00:18:54;;;;;;;0.20;0.20;;;;;;;;;;1739969;28;20214;-73
2023/01/18 00:19:46;;;;;;;0.30;0.30;;;;;;;;;;1739524;28;20203;-73
2023/01/18 00:20:37;;;;;;;0.10;0.10;;;;;;;;;;1741836;28;20383;-74
2023/01/18 00:21:29;;;;;;;0.10;0.10;;;;;;;;;;1740701;28;20214;-74
2023/01/18 00:22:20;;;;;;;0.10;0.10;;;;;;;;;;1741397;28;20214;-74
2023/01/18 00:23:11;;;;;;;0.10;0.10;;;;;;;;;;1741057;28;20211;-74
2023/01/18 00:24:03;;;;;;;0.10;0.10;;;;;;;;;;1739579;28;20219;-74
2023/01/18 00:24:55;;;;;;;0.15;0.15;;;;;;;;;;1740019;28;20199;-74
2023/01/18 00:25:46;;;;;;;0.10;0.10;;;;;;;;;;1743283;28;20727;-73
2023/01/18 00:26:38;;;;;;;0.10;0.10;;;;;;;;;;1739382;28;20272;-73
2023/01/18 00:27:29;;;;;;;0.10;0.10;;;;;;;;;;1742464;28;20202;-73
2023/01/18 00:28:21;;;;;;;0.35;0.35;;;;;;;;;;1739929;28;20348;-73
2023/01/18 00:29:12;;;;;;;0.20;0.20;;;;;;;;;;1732924;28;20210;-73
2023/01/18 00:30:05;;;;;;;0.10;0.10;;;;;;;;;;1738063;28;20219;-73
2023/01/18 00:30:56;;;;;;;0.28;0.28;;;;;;;;;;1742950;28;20487;-73
2023/01/18 00:31:49;;;;;;;0.10;0.10;;;;;;;;;;1738811;28;20226;-73
2023/01/18 00:32:40;;;;;;;0.20;0.20;;;;;;;;;;1742670;28;20206;-72
2023/01/18 00:33:32;;;;;;;0.20;0.20;;;;;;;;;;1739892;28;20695;-72
2023/01/18 00:34:27;;;;;;;0.15;0.15;;;;;;;;;;1739899;28;20218;-72
2023/01/18 00:35:20;;;;;;;0.20;0.20;;;;;;;;;;1739552;28;20203;-74
2023/01/18 00:36:12;;;;;;;0.20;0.20;;;;;;;;;;1743980;28;20223;-73
2023/01/18 00:37:04;;;;;;;0.20;0.20;;;;;;;;;;1740320;28;20234;-74
2023/01/18 00:37:55;;;;;;;0.35;0.35;;;;;;;;;;1744003;28;20219;-73
2023/01/18 00:38:51;;;;;;;0.20;0.20;;;;;;;;;;1741335;28;20210;-74
2023/01/18 00:39:42;;;;;;;0.10;0.10;;;;;;;;;;1740829;28;20309;-74
2023/01/18 00:40:33;;;;;;;0.20;0.20;;;;;;;;;;1742602;28;20237;-72
2023/01/18 00:41:25;;;;;;;0.32;0.32;;;;;;;;;;1742394;28;20874;-72
2023/01/18 00:43:38;;;;;;;0.25;0.15;;;;;;;;;;1741068;28;20235;-72
2023/01/18 00:44:30;;;;;;;0.10;0.10;;;;;;;;;;1740823;28;20229;-73
2023/01/18 00:45:21;;;;;;;0.30;0.30;;;;;;;;;;1740880;28;20206;-72
2023/01/18 00:46:15;;;;;;;0.20;0.20;;;;;;;;;;1738305;28;20834;-73
2023/01/18 00:47:07;;;;;;;0.20;0.20;;;;;;;;;;1741705;28;20215;-73
2023/01/18 00:48:01;;;;;;;0.20;0.20;;;;;;;;;;1743441;28;20206;-73
2023/01/18 00:48:53;;;;;;;0.13;0.13;;;;;;;;;;1741392;28;20302;-72
2023/01/18 00:49:46;;;;;;;0.30;0.30;;;;;;;;;;1740684;28;20538;-72
2023/01/18 00:50:37;;;;;;;0.20;0.20;;;;;;;;;;1743146;28;20664;-72
2023/01/18 00:51:29;;;;;;;0.10;0.10;;;;;;;;;;1745190;28;20198;-73
2023/01/18 00:52:20;;;;;;;0.10;0.10;;;;;;;;;;1742596;28;20259;-73
2023/01/18 00:53:11;;;;;;;0.20;0.20;;;;;;;;;;1741445;28;20537;-72
2023/01/18 00:54:03;;;;;;;0.20;0.20;;;;;;;;;;1740627;28;20268;-72
2023/01/18 00:54:55;;;;;;;0.20;0.20;;;;;;;;;;1741016;28;20614;-72
2023/01/18 00:55:46;;;;;;;0.30;0.30;;;;;;;;;;1744311;28;20256;-72
2023/01/18 00:56:38;;;;;;;0.20;0.20;;;;;;;;;;1740345;28;20204;-72
2023/01/18 00:57:29;;;;;;;0.13;0.13;;;;;;;;;;1743652;28;20279;-72
2023/01/18 00:58:21;;;;;;;0.20;0.20;;;;;;;;;;1740896;28;20288;-72
2023/01/18 00:59:12;;;;;;;0.10;0.10;;;;;;;;;;1741255;28;20301;-72
2023/01/18 01:00:04;;;;;;;0.20;0.20;;;;;;;;;;1740487;28;20202;-72
2023/01/18 01:00:55;;;;;;;0.13;0.13;;;;;;;;;;1744542;28;20249;-74
2023/01/18 01:01:47;;;;;;;0.20;0.20;;;;;;;;;;1740110;28;20690;-74
2023/01/18 01:02:39;;;;;;;0.08;0.08;;;;;;;;;;1739806;28;20288;-74
2023/01/18 01:06:43;;;;;;;0.10;0.10;;;;;;;;;;1741237;28;20263;-73
2023/01/18 01:07:02;;;;;;;0.10;0.10;;;;;;;;;;1737805;28;20213;-72
2023/01/18 01:07:54;;;;;;;0.17;0.17;;;;;;;;;;1743774;28;20211;-73
2023/01/18 01:08:48;;;;;;;0.20;0.20;;;;;;;;;;1741216;28;20640;-73
2023/01/18 01:09:41;;;;;;;0.28;0.28;;;;;;;;;;1741059;28;20198;-72
2023/01/18 01:10:32;;;;;;;0.30;0.30;;;;;;;;;;1742065;28;20237;-74
2023/01/18 01:11:23;;;;;;;0.10;0.10;;;;;;;;;;1737696;28;20197;-73
2023/01/18 01:26:14;;;;;;;0.13;0.13;;;;;;;;;;1727619;28;20612;-73
2023/01/18 01:27:05;;;;;;;0.10;0.10;;;;;;;;;;1738809;28;20211;-73
2023/01/18 01:27:57;;;;;;;0.10;0.10;;;;;;;;;;1743956;28;20202;-72
2023/01/18 01:28:50;;;;;;;0.20;0.20;;;;;;;;;;1741262;28;20211;-72
2023/01/18 01:29:42;;;;;;;0.10;0.10;;;;;;;;;;1740543;28;20612;-72
2023/01/18 01:30:33;;;;;;;0.30;0.30;;;;;;;;;;1742128;28;20237;-73
2023/01/18 01:31:25;;;;;;;0.15;0.15;;;;;;;;;;1743482;28;20203;-73
2023/01/18 01:32:16;;;;;;;0.20;0.20;;;;;;;;;;1741607;28;20283;-72
2023/01/18 01:33:09;;;;;;;0.10;0.10;;;;;;;;;;1742130;28;20257;-73
2023/01/18 01:34:00;;;;;;;0.20;0.20;;;;;;;;;;1740596;28;20702;-73
2023/01/18 01:34:52;;;;;;;0.15;0.15;;;;;;;;;;1740871;28;20207;-73
2023/01/18 01:35:43;;;;;;;0.20;0.20;;;;;;;;;;1743547;28;20254;-73
2023/01/18 01:36:35;;;;;;;0.20;0.20;;;;;;;;;;1740555;28;20199;-73
2023/01/18 01:37:26;;;;;;;0.10;0.10;;;;;;;;;;1743045;28;20344;-73
2023/01/18 01:38:18;;;;;;;0.10;0.10;;;;;;;;;;1741464;28;20551;-73
2023/01/18 01:39:09;;;;;;;0.10;0.10;;;;;;;;;;1744510;28;20210;-73
2023/01/18 01:40:04;;;;;;;0.15;0.15;;;;;;;;;;1739905;28;20300;-73
2023/01/18 01:40:56;;;;;;;0.15;0.15;;;;;;;;;;1731705;28;20297;-72
2023/01/18 01:41:48;;;;;;;0.20;0.20;;;;;;;;;;1739753;28;20203;-72
2023/01/18 01:42:39;;;;;;;0.10;0.10;;;;;;;;;;1743444;28;20214;-72
2023/01/18 01:43:39;;;;;;;0.10;0.10;;;;;;;;;;1740983;28;20206;-72
2023/01/18 01:44:41;;;;;;;0.10;0.10;;;;;;;;;;1740727;28;20213;-72
2023/01/18 01:45:33;;;;;;;0.10;0.10;;;;;;;;;;1742111;28;20235;-72
2023/01/18 01:46:27;;;;;;;0.10;0.10;;;;;;;;;;1744629;28;20265;-72
2023/01/18 01:47:24;;;;;;;0.20;0.20;;;;;;;;;;1741217;28;20629;-72
2023/01/18 01:48:17;;;;;;;0.30;0.30;;;;;;;;;;1741198;28;20583;-73
2023/01/18 01:49:10;;;;;;;0.13;0.13;;;;;;;;;;1740627;28;20683;-72
2023/01/18 01:50:11;;;;;;;0.10;0.10;;;;;;;;;;1739839;28;20211;-72
2023/01/18 01:51:03;;;;;;;0.10;0.10;;;;;;;;;;1732813;28;20271;-73
2023/01/18 01:51:55;;;;;;;0.30;0.30;;;;;;;;;;1743515;28;20279;-73
2023/01/18 01:52:47;;;;;;;0.35;0.35;;;;;;;;;;1743291;28;20287;-73
2023/01/18 01:53:39;;;;;;;0.20;0.20;;;;;;;;;;1741060;28;20599;-73
2023/01/18 01:54:31;;;;;;;0.20;0.20;;;;;;;;;;1740502;28;20570;-73
2023/01/18 01:55:25;;;;;;;0.20;0.20;;;;;;;;;;1740578;28;20195;-74
2023/01/18 01:56:17;;;;;;;0.20;0.20;;;;;;;;;;1744740;28;20640;-73
2023/01/18 01:57:11;;;;;;;0.10;0.10;;;;;;;;;;1742064;28;20214;-73
2023/01/18 01:58:03;;;;;;;0.20;0.20;;;;;;;;;;1742835;28;20207;-73
2023/01/18 01:58:57;;;;;;;0.15;0.15;;;;;;;;;;1740670;28;20219;-73
2023/01/18 01:59:49;;;;;;;0.08;0.08;;;;;;;;;;1740647;28;20272;-73
2023/01/18 02:00:42;;;;;;;0.17;0.17;;;;;;;;;;1747426;28;20241;-72
2023/01/18 02:01:33;;;;;;;0.10;0.10;;;;;;;;;;1747689;28;20202;-72
2023/01/18 02:02:26;;;;;;;0.30;0.30;;;;;;;;;;1749471;28;20202;-72
2023/01/18 02:03:18;;;;;;;0.20;0.20;;;;;;;;;;1747180;28;20214;-72
2023/01/18 02:04:10;;;;;;;0.20;0.20;;;;;;;;;;1747380;28;20232;-72
2023/01/18 02:05:06;;;;;;;0.65;0.65;;;;;;;;;;1746567;28;20781;-72
2023/01/18 02:06:02;;;;;;;0.20;0.20;;;;;;;;;;1738628;28;20262;-73
2023/01/18 02:06:53;;;;;;;0.22;0.22;;;;;;;;;;1750181;28;20263;-73
2023/01/18 02:07:45;;;;;;;0.20;0.20;;;;;;;;;;1746483;28;20206;-73
2023/01/18 02:08:37;;;;;;;0.10;0.10;;;;;;;;;;1747591;28;20279;-73
2023/01/18 02:09:29;;;;;;;0.20;0.20;;;;;;;;;;1746506;28;20720;-73
2023/01/18 02:10:20;;;;;;;0.15;0.15;;;;;;;;;;1745311;28;20202;-72
2023/01/18 02:11:12;;;;;;;0.10;0.10;;;;;;;;;;1745789;28;20279;-72
2023/01/18 02:12:04;;;;;;;0.28;0.28;;;;;;;;;;1746998;28;20214;-72
2023/01/18 02:12:57;;;;;;;0.10;0.10;;;;;;;;;;1750002;28;20210;-72
2023/01/18 02:13:48;;;;;;;0.10;0.10;;;;;;;;;;1746715;28;20270;-72
2023/01/18 02:14:40;;;;;;;0.10;0.10;;;;;;;;;;1747542;28;20561;-72
2023/01/18 02:15:34;;;;;;;0.00;0.00;;;;;;;;;;1744821;28;22065;-72
2023/01/18 02:16:30;;;;;;;0.10;0.10;;;;;;;;;;1749290;28;20301;-72
2023/01/18 02:17:31;;;;;;;0.10;0.10;;;;;;;;;;1753457;28;20202;-72
2023/01/18 02:18:29;;;;;;;0.10;0.10;;;;;;;;;;1746461;28;20186;-72
2023/01/18 02:19:30;;;;;;;0.00;0.00;;;;;;;;;;1747265;28;20233;-72
2023/01/18 02:20:33;;;;;;;0.20;0.20;;;;;;;;;;1747294;28;20190;-72
2023/01/18 02:21:26;;;;;;;0.30;0.30;;;;;;;;;;1751431;28;20516;-72
2023/01/18 02:22:25;;;;;;;0.20;0.20;;;;;;;;;;1747209;28;20199;-72
2023/01/18 02:23:31;;;;;;;0.20;0.20;;;;;;;;;;1747024;28;20203;-72
2023/01/18 02:24:36;;;;;;;0.20;0.20;;;;;;;;;;1737387;28;20545;-72
2023/01/18 02:25:41;;;;;;;0.10;0.10;;;;;;;;;;1737908;28;20257;-72
2023/01/18 02:26:46;;;;;;;0.20;0.20;;;;;;;;;;1748588;28;20279;-72
2023/01/18 02:27:42;;;;;;;0.20;0.20;;;;;;;;;;1746039;28;20210;-74
2023/01/18 02:28:36;;;;;;;0.10;0.10;;;;;;;;;;1747493;28;20221;-72
2023/01/18 02:29:36;;;;;;;0.10;0.10;;;;;;;;;;1746143;28;20210;-72
2023/01/18 02:30:30;;;;;;;0.10;0.10;;;;;;;;;;1748015;28;20201;-72
2023/01/18 02:31:23;;;;;;;0.20;0.20;;;;;;;;;;1751669;28;20629;-72
2023/01/18 02:32:21;;;;;;;0.10;0.10;;;;;;;;;;1747428;28;20198;-72
2023/01/18 02:33:15;;;;;;;0.10;0.10;;;;;;;;;;1747091;28;20206;-72
2023/01/18 02:34:12;;;;;;;0.30;0.30;;;;;;;;;;1746578;28;20202;-72
2023/01/18 02:35:06;;;;;;;0.13;0.13;;;;;;;;;;1746971;28;20581;-74
2023/01/18 02:36:00;;;;;;;0.35;0.35;;;;;;;;;;1738347;28;20245;-72
2023/01/18 02:36:56;;;;;;;0.10;0.10;;;;;;;;;;1750049;28;20274;-72
2023/01/18 02:37:50;;;;;;;0.40;0.40;;;;;;;;;;1746268;28;20245;-72
2023/01/18 02:38:44;;;;;;;0.30;0.30;;;;;;;;;;1747409;28;20214;-72
2023/01/18 02:39:42;;;;;;;0.20;0.20;;;;;;;;;;1746334;28;20198;-72
2023/01/18 02:40:38;;;;;;;0.10;0.10;;;;;;;;;;1743898;28;20708;-73
2023/01/18 02:46:33;;;;;;;0.10;0.10;;;;;;;;;;1743151;28;20237;-72
2023/01/18 02:47:25;;;;;;;0.10;0.10;;;;;;;;;;1742677;28;20199;-72
2023/01/18 02:48:19;;;;;;;0.20;0.20;;;;;;;;;;1746676;28;20203;-72
2023/01/18 02:49:11;;;;;;;0.22;0.22;;;;;;;;;;1747137;28;20272;-72
2023/01/18 02:50:04;;;;;;;0.25;0.25;;;;;;;;;;1746584;28;20202;-72
2023/01/18 02:50:55;;;;;;;0.20;0.20;;;;;;;;;;1744224;28;20238;-73
2023/01/18 02:51:47;;;;;;;0.17;0.17;;;;;;;;;;1746403;28;20608;-73
2023/01/18 02:52:39;;;;;;;0.20;0.20;;;;;;;;;;1745949;28;20225;-73
2023/01/18 02:53:32;;;;;;;0.40;0.40;;;;;;;;;;1746413;28;20720;-73
2023/01/18 02:54:23;;;;;;;0.22;0.22;;;;;;;;;;1747058;28;20266;-73
2023/01/18 02:55:18;;;;;;;0.20;0.20;;;;;;;;;;1745366;28;20540;-74
2023/01/18 02:56:12;;;;;;;0.10;0.10;;;;;;;;;;1745995;28;20237;-73
2023/01/18 02:57:06;;;;;;;0.10;0.10;;;;;;;;;;1748964;28;20586;-73
2023/01/18 02:58:01;;;;;;;0.30;0.30;;;;;;;;;;1743082;28;20210;-73
2023/01/18 02:58:58;;;;;;;0.10;0.10;;;;;;;;;;1746055;28;20218;-73
2023/01/18 02:59:53;;;;;;;0.10;0.10;;;;;;;;;;1747028;28;20210;-73
2023/01/18 03:00:48;;;;;;;0.17;0.17;;;;;;;;;;1743010;28;20249;-72
2023/01/18 03:01:40;;;;;;;0.10;0.10;;;;;;;;;;1746173;28;20210;-72
2023/01/18 03:02:32;;;;;;;0.10;0.10;;;;;;;;;;1746445;28;20209;-73
2023/01/18 03:03:24;;;;;;;0.20;0.20;;;;;;;;;;1746928;28;20206;-72
2023/01/18 03:04:17;;;;;;;0.10;0.10;;;;;;;;;;1746445;28;20210;-72
2023/01/18 03:05:10;;;;;;;0.20;0.20;;;;;;;;;;1746290;28;20645;-74
2023/01/18 03:06:03;;;;;;;0.10;0.10;;;;;;;;;;1750756;28;20298;-73
2023/01/18 03:06:56;;;;;;;0.20;0.20;;;;;;;;;;1746139;28;20271;-73
2023/01/18 03:07:51;;;;;;;0.20;0.20;;;;;;;;;;1745727;28;20206;-73
2023/01/18 03:08:43;;;;;;;0.30;0.30;;;;;;;;;;1747319;28;20267;-73
2023/01/18 03:09:35;;;;;;;0.22;0.22;;;;;;;;;;1745882;28;20202;-73
2023/01/18 03:10:28;;;;;;;0.20;0.20;;;;;;;;;;1747312;28;20638;-73
2023/01/18 03:11:23;;;;;;;0.20;0.20;;;;;;;;;;1748361;28;20547;-73
2023/01/18 03:12:21;;;;;;;0.20;0.20;;;;;;;;;;1747322;28;20194;-72
2023/01/18 03:13:16;;;;;;;0.15;0.15;;;;;;;;;;1745366;28;20201;-73
2023/01/18 03:14:13;;;;;;;0.20;0.20;;;;;;;;;;1746309;28;20264;-73
2023/01/18 03:15:11;;;;;;;0.17;0.17;;;;;;;;;;1746932;28;20387;-73
2023/01/18 03:16:05;;;;;;;0.20;0.20;;;;;;;;;;1739198;28;20241;-73
2023/01/18 03:17:01;;;;;;;0.25;0.25;;;;;;;;;;1750291;28;20233;-73
2023/01/18 03:17:53;;;;;;;0.10;0.10;;;;;;;;;;1745756;28;20218;-72
2023/01/18 03:18:59;;;;;;;0.20;0.20;;;;;;;;;;1746358;28;20232;-72
2023/01/18 03:20:03;;;;;;;0.10;0.10;;;;;;;;;;1745922;28;20210;-72
2023/01/18 03:20:57;;;;;;;0.45;0.45;;;;;;;;;;1750388;28;20701;-72
2023/01/18 03:21:50;;;;;;;0.28;0.28;;;;;;;;;;1748619;28;20206;-72
2023/01/18 03:23:57;;;;;;;0.20;0.20;;;;;;;;;;1745984;28;20213;-72
2023/01/18 03:24:48;;;;;;;0.30;0.30;;;;;;;;;;1746204;28;20209;-73
2023/01/18 03:25:41;;;;;;;0.10;0.10;;;;;;;;;;1744547;28;20675;-72
2023/01/18 03:26:34;;;;;;;0.30;0.30;;;;;;;;;;1749403;28;20213;-72
2023/01/18 03:33:41;;;;;;;0.20;0.20;;;;;;;;;;1740213;28;20229;-72
2023/01/18 03:34:34;;;;;;;0.20;0.20;;;;;;;;;;1745864;28;20237;-72
2023/01/18 03:35:27;;;;;;;0.10;0.10;;;;;;;;;;1746972;28;20292;-73
2023/01/18 03:36:21;;;;;;;0.10;0.10;;;;;;;;;;1748948;28;20194;-73
2023/01/18 03:37:14;;;;;;;0.13;0.13;;;;;;;;;;1746931;28;20642;-73
2023/01/18 03:38:05;;;;;;;0.10;0.10;;;;;;;;;;1748540;28;20222;-73
2023/01/18 03:39:05;;;;;;;0.20;0.20;;;;;;;;;;1747300;28;20233;-73
2023/01/18 03:39:57;;;;;;;0.50;0.50;;;;;;;;;;1742815;28;20267;-73
2023/01/18 03:40:49;;;;;;;0.22;0.22;;;;;;;;;;1744191;28;20226;-72
2023/01/18 03:41:43;;;;;;;0.20;0.20;;;;;;;;;;1745614;28;20267;-72
2023/01/18 03:42:37;;;;;;;0.40;0.40;;;;;;;;;;1745956;28;20202;-72
2023/01/18 03:43:35;;;;;;;0.20;0.20;;;;;;;;;;1745996;28;20424;-72
2023/01/18 03:44:31;;;;;;;0.20;0.20;;;;;;;;;;1746729;28;20198;-72
2023/01/18 03:45:26;;;;;;;0.15;0.15;;;;;;;;;;1744524;28;20200;-72
2023/01/18 03:46:19;;;;;;;0.20;0.20;;;;;;;;;;1747231;28;20652;-72
2023/01/18 03:47:10;;;;;;;0.17;0.17;;;;;;;;;;1747832;28;20716;-72
2023/01/18 03:48:03;;;;;;;0.20;0.20;;;;;;;;;;1746135;28;20198;-72
2023/01/18 03:48:54;;;;;;;0.20;0.20;;;;;;;;;;1747013;28;20214;-72
2023/01/18 03:49:46;;;;;;;0.20;0.20;;;;;;;;;;1745459;28;20275;-72
2023/01/18 03:50:42;;;;;;;0.10;0.10;;;;;;;;;;1748567;28;20266;-74
2023/01/18 03:51:41;;;;;;;0.30;0.30;;;;;;;;;;1746848;28;20207;-73
2023/01/18 03:52:36;;;;;;;0.10;0.10;;;;;;;;;;1742637;28;20618;-73
2023/01/18 03:53:31;;;;;;;0.10;0.10;;;;;;;;;;1746903;28;20641;-73
2023/01/18 03:54:27;;;;;;;0.10;0.10;;;;;;;;;;1745759;28;20209;-73
2023/01/18 03:55:22;;;;;;;0.20;0.20;;;;;;;;;;1746136;28;20190;-72
2023/01/18 03:56:15;;;;;;;0.30;0.30;;;;;;;;;;1750605;28;20271;-72
2023/01/18 03:57:09;;;;;;;0.10;0.10;;;;;;;;;;1748315;28;20289;-72
2023/01/18 03:58:02;;;;;;;0.10;0.10;;;;;;;;;;1743018;28;20203;-72
2023/01/18 03:58:56;;;;;;;0.20;0.20;;;;;;;;;;1745946;28;20332;-72
2023/01/18 03:59:47;;;;;;;0.20;0.20;;;;;;;;;;1746433;28;20210;-72
2023/01/18 04:00:41;;;;;;;0.22;0.22;;;;;;;;;;1748402;28;20260;-73
2023/01/18 04:01:32;;;;;;;0.13;0.13;;;;;;;;;;1750637;28;20296;-73
2023/01/18 04:02:24;;;;;;;0.15;0.15;;;;;;;;;;1746055;28;20222;-73
2023/01/18 04:03:15;;;;;;;0.10;0.10;;;;;;;;;;1745311;28;20202;-73
2023/01/18 04:04:07;;;;;;;0.20;0.20;;;;;;;;;;1745740;28;20198;-73
2023/01/18 04:05:02;;;;;;;0.10;0.10;;;;;;;;;;1745343;28;20275;-73
2023/01/18 04:05:54;;;;;;;0.20;0.20;;;;;;;;;;1750156;28;20233;-73
2023/01/18 04:06:45;;;;;;;0.20;0.20;;;;;;;;;;1749078;28;20282;-73
2023/01/18 04:07:37;;;;;;;0.10;0.10;;;;;;;;;;1746063;28;20647;-73
2023/01/18 04:08:28;;;;;;;0.20;0.20;;;;;;;;;;1746093;28;20206;-73
2023/01/18 04:09:20;;;;;;;0.15;0.15;;;;;;;;;;1746482;28;20202;-73
2023/01/18 04:10:11;;;;;;;0.10;0.10;;;;;;;;;;1745044;28;20210;-72
2023/01/18 04:11:03;;;;;;;0.20;0.20;;;;;;;;;;1746124;28;20237;-72
2023/01/18 04:11:54;;;;;;;0.10;0.10;;;;;;;;;;1750816;28;20268;-72
2023/01/18 04:12:46;;;;;;;0.10;0.10;;;;;;;;;;1746925;28;20271;-72
2023/01/18 04:13:37;;;;;;;0.30;0.30;;;;;;;;;;1748195;28;20571;-72
2023/01/18 04:14:29;;;;;;;0.08;0.08;;;;;;;;;;1748073;28;20201;-72
2023/01/18 04:15:20;;;;;;;0.10;0.10;;;;;;;;;;1745860;28;20204;-73
2023/01/18 04:16:14;;;;;;;0.20;0.20;;;;;;;;;;1748252;28;20656;-73
2023/01/18 04:17:05;;;;;;;0.00;0.00;;;;;;;;;;1750153;28;20667;-73
2023/01/18 04:17:57;;;;;;;0.10;0.10;;;;;;;;;;1751176;28;20627;-73
2023/01/18 04:18:48;;;;;;;0.20;0.20;;;;;;;;;;1747588;28;20222;-73
2023/01/18 04:19:40;;;;;;;0.20;0.20;;;;;;;;;;1747698;28;20621;-73
2023/01/18 04:20:31;;;;;;;0.10;0.10;;;;;;;;;;1745720;28;20241;-73
2023/01/18 04:21:23;;;;;;;0.10;0.10;;;;;;;;;;1749133;28;20198;-73
2023/01/18 04:22:14;;;;;;;0.10;0.10;;;;;;;;;;1748455;28;20304;-73
2023/01/18 04:23:06;;;;;;;0.13;0.13;;;;;;;;;;1747385;28;20203;-73
2023/01/18 04:23:57;;;;;;;0.20;0.20;;;;;;;;;;1747241;28;20636;-73
2023/01/18 04:24:49;;;;;;;0.15;0.15;;;;;;;;;;1747256;28;20233;-73
2023/01/18 04:25:48;;;;;;;0.30;0.30;;;;;;;;;;1750198;28;20275;-73
2023/01/18 04:26:40;;;;;;;0.10;0.10;;;;;;;;;;1747300;28;20206;-73
2023/01/18 04:27:31;;;;;;;0.30;0.30;;;;;;;;;;1750405;28;20205;-73
2023/01/18 04:28:25;;;;;;;0.17;0.17;;;;;;;;;;1747255;28;20198;-73
2023/01/18 04:29:16;;;;;;;0.20;0.20;;;;;;;;;;1747335;28;20556;-73
2023/01/18 04:30:08;;;;;;;0.25;0.25;;;;;;;;;;1747897;28;20209;-73
2023/01/18 04:31:00;;;;;;;0.20;0.20;;;;;;;;;;1740059;28;20231;-73
2023/01/18 04:31:53;;;;;;;0.10;0.10;;;;;;;;;;1750695;28;20209;-73
2023/01/18 04:32:45;;;;;;;0.10;0.10;;;;;;;;;;1747146;28;20212;-73
2023/01/18 04:33:37;;;;;;;0.20;0.20;;;;;;;;;;1747236;28;20647;-73
2023/01/18 04:34:28;;;;;;;0.20;0.20;;;;;;;;;;1747786;28;20265;-73
2023/01/18 04:35:20;;;;;;;0.00;0.00;;;;;;;;;;1747159;28;20209;-74
2023/01/18 04:36:11;;;;;;;0.20;0.20;;;;;;;;;;1751910;28;20269;-73
2023/01/18 04:37:03;;;;;;;0.10;0.10;;;;;;;;;;1750419;28;20259;-73
2023/01/18 04:37:54;;;;;;;0.17;0.17;;;;;;;;;;1746886;28;20214;-73
2023/01/18 04:38:46;;;;;;;0.20;0.20;;;;;;;;;;1747909;28;20206;-73
2023/01/18 04:39:37;;;;;;;0.32;0.32;;;;;;;;;;1747198;28;20640;-73
2023/01/18 04:40:29;;;;;;;0.10;0.10;;;;;;;;;;1743754;28;20238;-74
2023/01/18 04:41:20;;;;;;;0.20;0.20;;;;;;;;;;1747148;28;20256;-73
2023/01/18 04:42:12;;;;;;;0.15;0.15;;;;;;;;;;1742667;28;20329;-73
2023/01/18 04:43:03;;;;;;;0.25;0.25;;;;;;;;;;1749921;28;20259;-73
2023/01/18 04:43:55;;;;;;;0.10;0.10;;;;;;;;;;1747104;28;20233;-73
2023/01/18 04:44:46;;;;;;;0.20;0.20;;;;;;;;;;1746962;28;20632;-73
2023/01/18 04:45:38;;;;;;;0.20;0.20;;;;;;;;;;1749896;28;20572;-72
2023/01/18 04:46:29;;;;;;;0.40;0.40;;;;;;;;;;1748665;28;20214;-72
2023/01/18 04:47:23;;;;;;;0.30;0.30;;;;;;;;;;1747365;28;20632;-72
2023/01/18 04:48:14;;;;;;;0.25;0.25;;;;;;;;;;1746775;28;20198;-72
2023/01/18 04:49:06;;;;;;;0.10;0.10;;;;;;;;;;1747863;28;20297;-72
2023/01/18 04:49:57;;;;;;;0.17;0.17;;;;;;;;;;1746877;28;20308;-73
2023/01/18 04:50:49;;;;;;;0.13;0.13;;;;;;;;;;1751190;28;20229;-73
2023/01/18 04:51:41;;;;;;;0.30;0.30;;;;;;;;;;1747259;28;20202;-73
2023/01/18 04:52:33;;;;;;;0.40;0.40;;;;;;;;;;1750597;28;20546;-73
2023/01/18 04:53:24;;;;;;;0.17;0.17;;;;;;;;;;1747206;28;20522;-73
2023/01/18 04:54:16;;;;;;;0.15;0.15;;;;;;;;;;1747234;28;20743;-73
2023/01/18 04:55:14;;;;;;;0.28;0.28;;;;;;;;;;1746787;28;20245;-73
2023/01/18 04:56:06;;;;;;;0.30;0.30;;;;;;;;;;1746039;28;20671;-72
2023/01/18 04:56:57;;;;;;;0.20;0.20;;;;;;;;;;1750632;28;20601;-72
2023/01/18 04:57:54;;;;;;;0.20;0.20;;;;;;;;;;1750255;28;20210;-72
2023/01/18 04:58:45;;;;;;;0.20;0.20;;;;;;;;;;1747669;28;20678;-72
2023/01/18 04:59:39;;;;;;;0.10;0.10;;;;;;;;;;1746904;28;20263;-72
2023/01/18 05:00:30;;;;;;;0.30;0.30;;;;;;;;;;1748383;28;20233;-73
2023/01/18 05:01:22;;;;;;;0.20;0.20;;;;;;;;;;1749845;28;20539;-73
2023/01/18 05:02:14;;;;;;;0.20;0.20;;;;;;;;;;1747882;28;20687;-73
2023/01/18 05:03:07;;;;;;;0.08;0.08;;;;;;;;;;1749426;28;20220;-73
2023/01/18 05:03:58;;;;;;;0.10;0.10;;;;;;;;;;1746924;28;20235;-73
2023/01/18 05:04:50;;;;;;;0.15;0.15;;;;;;;;;;1747416;28;20202;-73
2023/01/18 05:05:41;;;;;;;0.10;0.10;;;;;;;;;;1745563;28;20596;-72
2023/01/18 05:06:33;;;;;;;0.20;0.20;;;;;;;;;;1746794;28;20591;-72
2023/01/18 05:07:24;;;;;;;0.20;0.20;;;;;;;;;;1749369;28;20293;-72
2023/01/18 05:08:16;;;;;;;0.10;0.10;;;;;;;;;;1747679;28;20289;-72
2023/01/18 05:09:10;;;;;;;0.10;0.10;;;;;;;;;;1747464;28;20256;-72
2023/01/18 05:10:05;;;;;;;0.10;0.10;;;;;;;;;;1746816;28;20198;-72
2023/01/18 05:10:59;;;;;;;0.10;0.10;;;;;;;;;;1744634;28;20279;-73
2023/01/18 05:11:51;;;;;;;0.20;0.20;;;;;;;;;;1746934;28;20202;-73
2023/01/18 05:12:42;;;;;;;0.20;0.20;;;;;;;;;;1746695;28;20233;-73
2023/01/18 05:13:34;;;;;;;0.08;0.08;;;;;;;;;;1747556;28;20245;-73
2023/01/18 05:14:25;;;;;;;0.30;0.30;;;;;;;;;;1747617;28;20205;-73
2023/01/18 05:15:17;;;;;;;0.00;0.00;;;;;;;;;;1745523;28;20198;-72
2023/01/18 05:16:12;;;;;;;0.10;0.10;;;;;;;;;;1746733;28;20214;-72
2023/01/18 05:17:04;;;;;;;0.20;0.20;;;;;;;;;;1747266;28;20198;-72
2023/01/18 05:17:55;;;;;;;0.20;0.20;;;;;;;;;;1750071;28;20884;-72
2023/01/18 05:18:48;;;;;;;0.20;0.20;;;;;;;;;;1747133;28;20213;-72
2023/01/18 05:19:40;;;;;;;0.10;0.10;;;;;;;;;;1746436;28;20210;-72
2023/01/18 05:20:31;;;;;;;0.20;0.20;;;;;;;;;;1748488;28;20492;-72
2023/01/18 05:21:22;;;;;;;0.10;0.10;;;;;;;;;;1749445;28;20284;-72
2023/01/18 05:22:14;;;;;;;0.13;0.13;;;;;;;;;;1740731;28;20225;-72
2023/01/18 05:23:09;;;;;;;0.10;0.10;;;;;;;;;;1748625;28;20206;-72
2023/01/18 05:24:01;;;;;;;0.20;0.20;;;;;;;;;;1746753;28;20206;-72
2023/01/18 05:24:53;;;;;;;0.30;0.30;;;;;;;;;;1747519;28;20218;-72
2023/01/18 05:25:45;;;;;;;0.20;0.20;;;;;;;;;;1743518;28;20230;-73
2023/01/18 05:26:36;;;;;;;0.10;0.10;;;;;;;;;;1750130;28;20205;-73
2023/01/18 05:27:28;;;;;;;0.30;0.30;;;;;;;;;;1746805;28;20285;-73
2023/01/18 05:28:19;;;;;;;0.10;0.10;;;;;;;;;;1746434;28;20206;-73
2023/01/18 05:29:11;;;;;;;0.13;0.13;;;;;;;;;;1747537;28;20237;-73
2023/01/18 05:30:06;;;;;;;0.20;0.20;;;;;;;;;;1747027;28;20705;-73
2023/01/18 05:30:58;;;;;;;0.15;0.15;;;;;;;;;;1744853;28;20230;-72
2023/01/18 05:31:49;;;;;;;0.20;0.20;;;;;;;;;;1750141;28;20221;-72
2023/01/18 05:32:41;;;;;;;0.15;0.15;;;;;;;;;;1746719;28;20190;-72
2023/01/18 05:33:32;;;;;;;0.10;0.10;;;;;;;;;;1747524;28;20221;-72
2023/01/18 05:34:26;;;;;;;0.20;0.20;;;;;;;;;;1746856;28;20222;-72
2023/01/18 05:35:17;;;;;;;0.20;0.20;;;;;;;;;;1744470;28;20221;-72
2023/01/18 05:36:09;;;;;;;0.20;0.20;;;;;;;;;;1741522;28;20234;-72
2023/01/18 05:37:00;;;;;;;0.20;0.20;;;;;;;;;;1747364;28;20749;-72
2023/01/18 05:37:52;;;;;;;0.08;0.08;;;;;;;;;;1750161;28;20627;-72
2023/01/18 05:38:43;;;;;;;0.20;0.20;;;;;;;;;;1746811;28;20279;-72
2023/01/18 05:39:35;;;;;;;0.10;0.10;;;;;;;;;;1746715;28;20206;-72
2023/01/18 05:40:26;;;;;;;0.20;0.20;;;;;;;;;;1744623;28;20259;-72
2023/01/18 05:41:19;;;;;;;0.10;0.10;;;;;;;;;;1746643;28;20198;-72
2023/01/18 05:42:10;;;;;;;0.10;0.10;;;;;;;;;;1747308;28;20580;-72
2023/01/18 05:43:02;;;;;;;0.20;0.20;;;;;;;;;;1749891;28;20431;-72
2023/01/18 05:43:53;;;;;;;0.10;0.10;;;;;;;;;;1745405;28;20291;-72
2023/01/18 05:44:45;;;;;;;0.20;0.20;;;;;;;;;;1747185;28;20209;-72
2023/01/18 05:45:36;;;;;;;0.17;0.17;;;;;;;;;;1749141;28;20329;-73
2023/01/18 05:46:28;;;;;;;0.13;0.13;;;;;;;;;;1748593;28;20198;-73
2023/01/18 05:47:19;;;;;;;0.20;0.20;;;;;;;;;;1746876;28;20274;-73
2023/01/18 05:48:12;;;;;;;0.20;0.20;;;;;;;;;;1747033;28;20303;-73